createdAt,value
2023-05-19T00:00:12.721Z,0.00
2023-05-19T00:01:12.558Z,0.00
2023-05-19T00:02:12.585Z,0.00
2023-05-19T00:03:12.619Z,0.00
2023-05-19T00:04:13.108Z,0.00
2023-05-19T00:05:12.484Z,0.00
2023-05-19T00:06:12.566Z,0.00
2023-05-19T00:07:12.495Z,0.00
2023-05-19T00:08:12.449Z,0.00
2023-05-19T00:09:13.040Z,0.00
2023-05-19T00:10:12.439Z,0.00
2023-05-19T00:11:12.402Z,0.00
2023-05-19T00:12:12.438Z,0.00
2023-05-19T00:13:12.758Z,0.00
2023-05-19T00:14:12.779Z,0.00
2023-05-19T00:15:12.430Z,0.00
2023-05-19T00:16:12.488Z,0.00
2023-05-19T00:17:12.363Z,0.00
2023-05-19T00:18:12.437Z,0.00
2023-05-19T00:19:12.426Z,0.00
2023-05-19T00:20:12.331Z,0.00
2023-05-19T00:21:12.335Z,0.00
2023-05-19T00:22:12.299Z,0.00
2023-05-19T00:23:12.338Z,0.00
2023-05-19T00:24:12.318Z,0.00
2023-05-19T00:25:12.307Z,0.00
2023-05-19T00:26:12.269Z,0.00
2023-05-19T00:27:12.588Z,0.00
2023-05-19T00:28:12.553Z,0.00
2023-05-19T00:29:12.247Z,0.00
2023-05-19T00:30:12.246Z,0.00
2023-05-19T00:31:12.220Z,0.00
2023-05-19T00:32:12.535Z,0.00
2023-05-19T00:33:12.338Z,0.00
2023-05-19T00:34:12.210Z,0.00
2023-05-19T00:35:12.198Z,0.00
2023-05-19T00:36:12.187Z,0.00
2023-05-19T00:37:12.472Z,0.00
2023-05-19T00:38:12.240Z,0.00
2023-05-19T00:39:12.156Z,0.00
2023-05-19T00:40:12.115Z,0.00
2023-05-19T00:41:12.572Z,0.00
2023-05-19T00:42:12.477Z,0.00
2023-05-19T00:43:12.137Z,0.00
2023-05-19T00:44:12.064Z,0.00
2023-05-19T00:45:12.100Z,0.00
2023-05-19T00:46:12.279Z,0.00
2023-05-19T00:47:12.083Z,0.00
2023-05-19T00:48:12.045Z,0.00
2023-05-19T00:49:12.092Z,0.00
2023-05-19T00:50:12.033Z,0.00
2023-05-19T00:51:12.358Z,0.00
2023-05-19T00:52:12.024Z,0.00
2023-05-19T00:53:12.033Z,0.00
2023-05-19T00:54:12.006Z,0.00
2023-05-19T00:55:11.980Z,0.00
2023-05-19T00:56:12.347Z,0.00
2023-05-19T00:57:11.978Z,0.00
2023-05-19T00:58:11.953Z,0.00
2023-05-19T00:59:11.955Z,0.00
2023-05-19T01:00:11.961Z,0.00
2023-05-19T01:01:12.514Z,0.00
2023-05-19T01:02:11.898Z,0.00
2023-05-19T01:03:12.022Z,0.00
2023-05-19T01:04:11.942Z,0.00
2023-05-19T01:05:12.182Z,0.00
2023-05-19T01:06:11.861Z,0.00
2023-05-19T01:07:11.918Z,0.00
2023-05-19T01:08:11.828Z,0.00
2023-05-19T01:09:11.824Z,0.00
2023-05-19T01:10:11.836Z,0.00
2023-05-19T01:11:11.825Z,0.00
2023-05-19T01:12:11.822Z,0.00
2023-05-19T01:13:11.799Z,0.00
2023-05-19T01:14:12.243Z,0.00
2023-05-19T01:15:12.285Z,0.00
2023-05-19T01:16:11.768Z,0.00
2023-05-19T01:17:11.751Z,0.00
2023-05-19T01:18:11.755Z,0.00
2023-05-19T01:19:12.108Z,0.00
2023-05-19T01:20:11.720Z,0.00
2023-05-19T01:21:11.730Z,0.00
2023-05-19T01:22:11.724Z,0.00
2023-05-19T01:23:11.690Z,0.00
2023-05-19T01:24:12.027Z,0.00
2023-05-19T01:25:11.657Z,0.00
2023-05-19T01:26:11.687Z,0.00
2023-05-19T01:27:11.662Z,0.00
2023-05-19T01:28:12.020Z,0.00
2023-05-19T01:29:11.988Z,0.00
2023-05-19T01:30:11.616Z,0.00
2023-05-19T01:31:11.624Z,0.00
2023-05-19T01:32:11.667Z,0.00
2023-05-19T01:33:12.331Z,0.00
2023-05-19T01:34:11.594Z,0.00
2023-05-19T01:35:11.597Z,0.00
2023-05-19T01:36:11.561Z,0.00
2023-05-19T01:37:11.587Z,0.00
2023-05-19T01:38:12.004Z,0.00
2023-05-19T01:39:11.566Z,0.00
2023-05-19T01:40:11.509Z,0.00
2023-05-19T01:41:11.498Z,0.00
2023-05-19T01:42:11.488Z,0.00
2023-05-19T01:43:11.864Z,0.00
2023-05-19T01:44:11.463Z,0.00
2023-05-19T01:45:11.486Z,0.00
2023-05-19T01:46:11.579Z,0.00
2023-05-19T01:47:11.827Z,0.00
2023-05-19T01:48:11.643Z,0.00
2023-05-19T01:49:11.413Z,0.00
2023-05-19T01:50:11.419Z,0.00
2023-05-19T01:51:11.445Z,0.00
2023-05-19T01:52:11.598Z,0.00
2023-05-19T01:53:11.419Z,0.00
2023-05-19T01:54:11.376Z,0.00
2023-05-19T01:55:11.381Z,0.00
2023-05-19T01:56:11.360Z,0.00
2023-05-19T01:57:11.775Z,0.00
2023-05-19T01:58:11.358Z,0.00
2023-05-19T01:59:11.345Z,0.00
2023-05-19T02:00:11.300Z,0.00
2023-05-19T02:01:11.360Z,0.00
2023-05-19T02:02:11.615Z,0.00
2023-05-19T02:03:11.277Z,0.00
2023-05-19T02:04:11.330Z,0.00
2023-05-19T02:05:11.289Z,0.00
2023-05-19T02:06:11.643Z,0.00
2023-05-19T02:07:11.476Z,0.00
2023-05-19T02:08:11.221Z,0.00
2023-05-19T02:09:11.255Z,0.00
2023-05-19T02:10:11.228Z,0.00
2023-05-19T02:11:11.601Z,0.00
2023-05-19T02:12:11.191Z,0.00
2023-05-19T02:13:11.175Z,0.00
2023-05-19T02:14:11.148Z,0.00
2023-05-19T02:15:11.185Z,0.00
2023-05-19T02:16:11.529Z,0.00
2023-05-19T02:17:11.153Z,0.00
2023-05-19T02:18:11.130Z,0.00
2023-05-19T02:19:11.149Z,0.00
2023-05-19T02:20:11.327Z,0.00
2023-05-19T02:21:11.399Z,0.00
2023-05-19T02:22:11.069Z,0.00
2023-05-19T02:23:11.144Z,0.00
2023-05-19T02:24:11.087Z,0.00
2023-05-19T02:25:11.458Z,0.00
2023-05-19T02:26:11.077Z,0.00
2023-05-19T02:27:11.041Z,0.00
2023-05-19T02:28:11.037Z,0.00
2023-05-19T02:29:11.088Z,0.00
2023-05-19T02:30:11.298Z,0.00
2023-05-19T02:31:11.008Z,0.00
2023-05-19T02:32:11.121Z,0.00
2023-05-19T02:33:11.006Z,0.00
2023-05-19T02:34:11.283Z,0.00
2023-05-19T02:35:10.976Z,0.00
2023-05-19T02:36:10.930Z,0.00
2023-05-19T02:37:10.960Z,0.00
2023-05-19T02:38:10.946Z,0.00
2023-05-19T02:39:11.164Z,0.00
2023-05-19T02:40:10.906Z,0.00
2023-05-19T02:41:10.900Z,0.00
2023-05-19T02:42:10.887Z,0.00
2023-05-19T02:43:10.898Z,0.00
2023-05-19T02:44:11.171Z,0.00
2023-05-19T02:45:10.871Z,0.00
2023-05-19T02:46:10.896Z,0.00
2023-05-19T02:47:10.813Z,1.00
2023-05-19T02:48:11.589Z,0.00
2023-05-19T02:49:11.268Z,1.00
2023-05-19T02:50:10.755Z,1.00
2023-05-19T02:51:10.739Z,1.00
2023-05-19T02:52:10.727Z,1.00
2023-05-19T02:53:11.094Z,2.00
2023-05-19T02:54:10.735Z,2.00
2023-05-19T02:55:10.743Z,2.00
2023-05-19T02:56:10.722Z,2.00
2023-05-19T02:57:11.067Z,2.00
2023-05-19T02:58:11.088Z,3.00
2023-05-19T02:59:10.648Z,3.00
2023-05-19T03:00:10.641Z,2.00
2023-05-19T03:01:10.664Z,2.00
2023-05-19T03:02:11.038Z,5.00
2023-05-19T03:03:10.754Z,7.00
2023-05-19T03:04:10.651Z,9.00
2023-05-19T03:05:10.606Z,7.00
2023-05-19T03:06:10.562Z,6.00
2023-05-19T03:07:10.895Z,2.00
2023-05-19T03:08:10.591Z,8.00
2023-05-19T03:09:10.586Z,12.00
2023-05-19T03:10:10.557Z,13.00
2023-05-19T03:11:10.863Z,13.00
2023-05-19T03:12:10.561Z,13.00
2023-05-19T03:13:10.535Z,11.00
2023-05-19T03:14:10.579Z,22.00
2023-05-19T03:15:10.488Z,21.00
2023-05-19T03:16:10.909Z,25.00
2023-05-19T03:17:10.521Z,26.00
2023-05-19T03:18:10.478Z,35.00
2023-05-19T03:19:10.508Z,34.00
2023-05-19T03:20:10.478Z,35.00
2023-05-19T03:21:10.861Z,34.00
2023-05-19T03:22:10.435Z,44.00
2023-05-19T03:23:10.418Z,47.00
2023-05-19T03:24:10.424Z,48.00
2023-05-19T03:25:10.442Z,50.00
2023-05-19T03:26:10.689Z,55.00
2023-05-19T03:27:10.381Z,65.00
2023-05-19T03:28:10.359Z,67.00
2023-05-19T03:29:10.375Z,71.00
2023-05-19T03:30:10.673Z,74.00
2023-05-19T03:31:10.746Z,82.00
2023-05-19T03:32:10.395Z,86.00
2023-05-19T03:33:10.446Z,91.00
2023-05-19T03:34:10.347Z,97.00
2023-05-19T03:35:10.631Z,102.00
2023-05-19T03:36:10.315Z,103.00
2023-05-19T03:37:10.321Z,116.00
2023-05-19T03:38:10.350Z,122.00
2023-05-19T03:39:10.264Z,125.00
2023-05-19T03:40:10.606Z,135.00
2023-05-19T03:41:10.225Z,146.00
2023-05-19T03:42:10.243Z,155.00
2023-05-19T03:43:10.198Z,166.00
2023-05-19T03:44:10.583Z,181.00
2023-05-19T03:45:10.675Z,191.00
2023-05-19T03:46:10.272Z,200.00
2023-05-19T03:47:10.171Z,210.00
2023-05-19T03:48:10.238Z,221.00
2023-05-19T03:49:10.670Z,228.00
2023-05-19T03:50:10.145Z,239.00
2023-05-19T03:51:10.186Z,250.00
2023-05-19T03:52:10.118Z,267.00
2023-05-19T03:53:10.131Z,280.00
2023-05-19T03:54:10.472Z,290.00
2023-05-19T03:55:10.101Z,302.00
2023-05-19T03:56:10.064Z,305.00
2023-05-19T03:57:10.121Z,318.00
2023-05-19T03:58:10.106Z,329.00
2023-05-19T03:59:10.372Z,342.00
2023-05-19T04:00:10.053Z,356.00
2023-05-19T04:01:10.030Z,374.00
2023-05-19T04:02:10.083Z,388.00
2023-05-19T04:03:10.965Z,406.00
2023-05-19T04:04:10.077Z,416.00
2023-05-19T04:05:10.017Z,434.00
2023-05-19T04:06:10.013Z,450.00
2023-05-19T04:07:09.992Z,465.00
2023-05-19T04:08:10.244Z,481.00
2023-05-19T04:09:09.945Z,494.00
2023-05-19T04:10:10.055Z,512.00
2023-05-19T04:11:09.927Z,536.00
2023-05-19T04:12:10.279Z,562.00
2023-05-19T04:13:09.900Z,590.00
2023-05-19T04:14:09.912Z,606.00
2023-05-19T04:15:10.210Z,630.00
2023-05-19T04:16:09.936Z,652.00
2023-05-19T04:17:10.224Z,678.00
2023-05-19T04:18:09.901Z,689.00
2023-05-19T04:19:09.914Z,705.00
2023-05-19T04:20:09.830Z,713.00
2023-05-19T04:21:09.839Z,737.00
2023-05-19T04:22:10.184Z,759.00
2023-05-19T04:23:09.826Z,782.00
2023-05-19T04:24:09.811Z,810.00
2023-05-19T04:25:09.783Z,836.00
2023-05-19T04:26:10.198Z,842.00
2023-05-19T04:27:10.330Z,862.00
2023-05-19T04:28:09.746Z,881.00
2023-05-19T04:29:09.751Z,904.00
2023-05-19T04:30:09.741Z,933.00
2023-05-19T04:31:10.148Z,964.00
2023-05-19T04:32:09.724Z,995.00
2023-05-19T04:33:09.774Z,1033.00
2023-05-19T04:34:09.750Z,1072.00
2023-05-19T04:35:09.760Z,1116.00
2023-05-19T04:36:10.003Z,1136.00
2023-05-19T04:37:09.678Z,1152.00
2023-05-19T04:38:09.684Z,1168.00
2023-05-19T04:39:09.666Z,1186.00
2023-05-19T04:40:09.649Z,1221.00
2023-05-19T04:41:09.701Z,1267.00
2023-05-19T04:42:09.645Z,1316.00
2023-05-19T04:43:09.586Z,1347.00
2023-05-19T04:44:09.594Z,1384.00
2023-05-19T04:45:09.867Z,1428.00
2023-05-19T04:46:11.562Z,1443.00
2023-05-19T04:47:09.652Z,1482.00
2023-05-19T04:48:09.608Z,1475.00
2023-05-19T04:49:09.585Z,1505.00
2023-05-19T04:50:09.563Z,1527.00
2023-05-19T04:51:09.533Z,1557.00
2023-05-19T04:52:09.507Z,1565.00
2023-05-19T04:53:09.497Z,1582.00
2023-05-19T04:54:10.235Z,1601.00
2023-05-19T04:55:09.920Z,1625.00
2023-05-19T04:56:09.576Z,1661.00
2023-05-19T04:57:09.469Z,1693.00
2023-05-19T04:58:09.486Z,1715.00
2023-05-19T04:59:09.930Z,1745.00
2023-05-19T05:00:09.456Z,1772.00
2023-05-19T05:01:09.460Z,1793.00
2023-05-19T05:02:09.454Z,1831.00
2023-05-19T05:03:09.495Z,1845.00
2023-05-19T05:04:10.136Z,1921.00
2023-05-19T05:05:09.434Z,1945.00
2023-05-19T05:06:09.428Z,1918.00
2023-05-19T05:07:09.356Z,1854.00
2023-05-19T05:08:09.721Z,1905.00
2023-05-19T05:09:09.639Z,1892.00
2023-05-19T05:10:09.342Z,1933.00
2023-05-19T05:11:09.329Z,2058.00
2023-05-19T05:12:09.378Z,2165.00
2023-05-19T05:13:11.202Z,2230.00
2023-05-19T05:14:09.317Z,2250.00
2023-05-19T05:15:09.271Z,2199.00
2023-05-19T05:16:09.297Z,2118.00
2023-05-19T05:17:09.249Z,2074.00
2023-05-19T05:18:09.548Z,2037.00
2023-05-19T05:19:09.287Z,2125.00
2023-05-19T05:20:09.236Z,2149.00
2023-05-19T05:21:09.207Z,2208.00
2023-05-19T05:22:09.243Z,2255.00
2023-05-19T05:23:09.247Z,2326.00
2023-05-19T05:24:09.214Z,2399.00
2023-05-19T05:25:09.169Z,2407.00
2023-05-19T05:26:09.160Z,2406.00
2023-05-19T05:27:09.513Z,2463.00
2023-05-19T05:28:09.143Z,2545.00
2023-05-19T05:29:09.114Z,2597.00
2023-05-19T05:30:09.127Z,2560.00
2023-05-19T05:31:09.119Z,2584.00
2023-05-19T05:32:09.498Z,2622.00
2023-05-19T05:33:09.258Z,2649.00
2023-05-19T05:34:09.099Z,2658.00
2023-05-19T05:35:09.057Z,2710.00
2023-05-19T05:36:09.116Z,2705.00
2023-05-19T05:37:09.414Z,2740.00
2023-05-19T05:38:09.033Z,2803.00
2023-05-19T05:39:09.058Z,2930.00
2023-05-19T05:40:09.044Z,3024.00
2023-05-19T05:41:09.346Z,3151.00
2023-05-19T05:42:09.012Z,3297.00
2023-05-19T05:43:08.973Z,3474.00
2023-05-19T05:44:08.954Z,3566.00
2023-05-19T05:45:08.955Z,3393.00
2023-05-19T05:46:09.324Z,3326.00
2023-05-19T05:47:08.963Z,3431.00
2023-05-19T05:48:09.021Z,3458.00
2023-05-19T05:49:08.928Z,3273.00
2023-05-19T05:50:09.274Z,3212.00
2023-05-19T05:51:08.975Z,3189.00
2023-05-19T05:52:08.891Z,3286.00
2023-05-19T05:53:08.894Z,2714.00
2023-05-19T05:54:08.871Z,2802.00
2023-05-19T05:55:09.379Z,3193.00
2023-05-19T05:56:08.848Z,3174.00
2023-05-19T05:57:08.855Z,3227.00
2023-05-19T05:58:08.862Z,3256.00
2023-05-19T05:59:08.840Z,3334.00
2023-05-19T06:00:08.869Z,3446.00
2023-05-19T06:01:08.802Z,3551.00
2023-05-19T06:02:08.838Z,3673.00
2023-05-19T06:03:09.802Z,3800.00
2023-05-19T06:04:08.814Z,3908.00
2023-05-19T06:05:09.165Z,4035.00
2023-05-19T06:06:08.781Z,4040.00
2023-05-19T06:07:08.750Z,4846.00
2023-05-19T06:08:08.753Z,4113.00
2023-05-19T06:09:08.741Z,4126.00
2023-05-19T06:10:08.735Z,4184.00
2023-05-19T06:11:08.697Z,4134.00
2023-05-19T06:12:08.672Z,4232.00
2023-05-19T06:13:08.671Z,4332.00
2023-05-19T06:14:09.040Z,4287.00
2023-05-19T06:15:08.656Z,4092.00
2023-05-19T06:16:08.734Z,4424.00
2023-05-19T06:17:08.625Z,4259.00
2023-05-19T06:18:09.510Z,4274.00
2023-05-19T06:19:08.938Z,4408.00
2023-05-19T06:20:08.678Z,4242.00
2023-05-19T06:21:08.609Z,4850.00
2023-05-19T06:22:08.577Z,4739.00
2023-05-19T06:23:08.602Z,4862.00
2023-05-19T06:24:08.571Z,5003.00
2023-05-19T06:25:08.558Z,4963.00
2023-05-19T06:26:08.572Z,4796.00
2023-05-19T06:27:08.533Z,4961.00
2023-05-19T06:28:08.548Z,5589.00
2023-05-19T06:29:08.544Z,4547.00
2023-05-19T06:30:08.508Z,5407.00
2023-05-19T06:31:08.520Z,4581.00
2023-05-19T06:32:08.800Z,5222.00
2023-05-19T06:33:08.816Z,5416.00
2023-05-19T06:34:08.454Z,5452.00
2023-05-19T06:35:08.496Z,5207.00
2023-05-19T06:36:08.478Z,3451.00
2023-05-19T06:37:08.737Z,3371.00
2023-05-19T06:38:08.418Z,5500.00
2023-05-19T06:39:08.440Z,20020.00
2023-05-19T06:40:08.415Z,17062.00
2023-05-19T06:41:08.400Z,12937.00
2023-05-19T06:42:08.760Z,21175.00
2023-05-19T06:43:08.384Z,5464.00
2023-05-19T06:44:08.444Z,29155.00
2023-05-19T06:45:08.389Z,23923.00
2023-05-19T06:46:08.353Z,26854.00
2023-05-19T06:47:08.726Z,21404.00
2023-05-19T06:48:08.344Z,5947.00
2023-05-19T06:49:08.312Z,13168.00
2023-05-19T06:50:08.374Z,24139.00
2023-05-19T06:51:08.645Z,17065.00
2023-05-19T06:52:08.380Z,6364.00
2023-05-19T06:53:08.297Z,13140.00
2023-05-19T06:54:08.286Z,65231.00
2023-05-19T06:55:08.249Z,6711.00
2023-05-19T06:56:08.627Z,71356.00
2023-05-19T06:57:08.238Z,25036.00
2023-05-19T06:58:08.228Z,75952.00
2023-05-19T06:59:08.206Z,76250.00
2023-05-19T07:00:08.246Z,76360.00
2023-05-19T07:01:08.698Z,75426.00
2023-05-19T07:02:08.327Z,75191.00
2023-05-19T07:03:08.200Z,75806.00
2023-05-19T07:04:08.226Z,73937.00
2023-05-19T07:05:08.513Z,72509.00
2023-05-19T07:06:08.536Z,76357.00
2023-05-19T07:07:08.173Z,79131.00
2023-05-19T07:08:08.237Z,77346.00
2023-05-19T07:09:08.132Z,77549.00
2023-05-19T07:10:08.444Z,72861.00
2023-05-19T07:11:08.122Z,73317.00
2023-05-19T07:12:08.105Z,75080.00
2023-05-19T07:13:08.067Z,79061.00
2023-05-19T07:14:08.387Z,76173.00
2023-05-19T07:15:08.384Z,72809.00
2023-05-19T07:16:08.131Z,78056.00
2023-05-19T07:17:08.037Z,69482.00
2023-05-19T07:18:08.088Z,32173.00
2023-05-19T07:19:08.019Z,17481.00
2023-05-19T07:20:07.987Z,14263.00
2023-05-19T07:21:07.983Z,26796.00
2023-05-19T07:22:07.987Z,33201.00
2023-05-19T07:23:07.950Z,23801.00
2023-05-19T07:24:08.252Z,16834.00
2023-05-19T07:25:07.939Z,15610.00
2023-05-19T07:26:07.940Z,11684.00
2023-05-19T07:27:07.914Z,8280.00
2023-05-19T07:28:08.215Z,10244.00
2023-05-19T07:29:08.443Z,12848.00
2023-05-19T07:30:07.883Z,10068.00
2023-05-19T07:31:07.876Z,11487.00
2023-05-19T07:32:07.906Z,9918.00
2023-05-19T07:33:08.607Z,9048.00
2023-05-19T07:34:07.839Z,8757.00
2023-05-19T07:35:07.863Z,8455.00
2023-05-19T07:36:07.818Z,5884.00
2023-05-19T07:37:07.820Z,5649.00
2023-05-19T07:38:08.107Z,35114.00
2023-05-19T07:39:07.824Z,27293.00
2023-05-19T07:40:07.797Z,6086.00
2023-05-19T07:41:07.777Z,15664.00
2023-05-19T07:42:07.763Z,68497.00
2023-05-19T07:43:08.296Z,30053.00
2023-05-19T07:44:07.933Z,18012.00
2023-05-19T07:45:07.730Z,15649.00
2023-05-19T07:46:07.764Z,9977.00
2023-05-19T07:47:08.031Z,13150.00
2023-05-19T07:48:07.706Z,10580.00
2023-05-19T07:49:07.711Z,13249.00
2023-05-19T07:50:07.708Z,22350.00
2023-05-19T07:51:07.661Z,16912.00
2023-05-19T07:52:07.665Z,23933.00
2023-05-19T07:53:07.639Z,13550.00
2023-05-19T07:54:07.641Z,11328.00
2023-05-19T07:55:07.637Z,15163.00
2023-05-19T07:56:07.606Z,15743.00
2023-05-19T07:57:07.945Z,5778.00
2023-05-19T07:58:07.607Z,30241.00
2023-05-19T07:59:07.599Z,13610.00
2023-05-19T08:00:07.579Z,13478.00
2023-05-19T08:01:07.620Z,27701.00
2023-05-19T08:02:08.013Z,16689.00
2023-05-19T08:03:07.692Z,19492.00
2023-05-19T08:04:09.161Z,19556.00
2023-05-19T08:05:07.515Z,70986.00
2023-05-19T08:06:07.862Z,32317.00
2023-05-19T08:07:07.552Z,25460.00
2023-05-19T08:08:07.490Z,28610.00
2023-05-19T08:09:07.487Z,28813.00
2023-05-19T08:10:07.479Z,26606.00
2023-05-19T08:11:07.506Z,29053.00
2023-05-19T08:12:07.481Z,28686.00
2023-05-19T08:13:07.428Z,26190.00
2023-05-19T08:14:07.494Z,27835.00
2023-05-19T08:15:07.450Z,28859.00
2023-05-19T08:16:07.468Z,28662.00
2023-05-19T08:17:07.397Z,24106.00
2023-05-19T08:18:07.420Z,24261.00
2023-05-19T08:19:07.444Z,22676.00
2023-05-19T08:20:07.385Z,22157.00
2023-05-19T08:21:07.357Z,22824.00
2023-05-19T08:22:07.343Z,26259.00
2023-05-19T08:23:07.327Z,27241.00
2023-05-19T08:24:07.406Z,28444.00
2023-05-19T08:25:07.321Z,22697.00
2023-05-19T08:26:07.315Z,23313.00
2023-05-19T08:27:07.311Z,27472.00
2023-05-19T08:28:07.321Z,20679.00
2023-05-19T08:29:07.300Z,19726.00
2023-05-19T08:30:07.350Z,21579.00
2023-05-19T08:31:07.300Z,20813.00
2023-05-19T08:32:07.275Z,21177.00
2023-05-19T08:33:07.327Z,25746.00
2023-05-19T08:34:07.501Z,29810.00
2023-05-19T08:35:07.252Z,14337.00
2023-05-19T08:36:07.240Z,22755.00
2023-05-19T08:37:07.201Z,68951.00
2023-05-19T08:38:07.215Z,29543.00
2023-05-19T08:39:07.572Z,26134.00
2023-05-19T08:40:07.184Z,24204.00
2023-05-19T08:41:07.241Z,25844.00
2023-05-19T08:42:07.178Z,19460.00
2023-05-19T08:43:07.488Z,23013.00
2023-05-19T08:44:07.185Z,28537.00
2023-05-19T08:45:07.166Z,23095.00
2023-05-19T08:46:07.119Z,15403.00
2023-05-19T08:47:07.150Z,13323.00
2023-05-19T08:48:07.840Z,9540.00
2023-05-19T08:49:07.085Z,9908.00
2023-05-19T08:50:07.069Z,11142.00
2023-05-19T08:51:07.060Z,11704.00
2023-05-19T08:52:07.038Z,12600.00
2023-05-19T08:53:15.080Z,10039.00
2023-05-19T08:54:07.090Z,10335.00
2023-05-19T08:55:07.030Z,9935.00
2023-05-19T08:56:06.993Z,10314.00
2023-05-19T08:57:07.265Z,10422.00
2023-05-19T08:58:07.356Z,9474.00
2023-05-19T08:59:07.021Z,10710.00
2023-05-19T09:00:06.943Z,11071.00
2023-05-19T09:01:06.982Z,12539.00
2023-05-19T09:02:07.073Z,13911.00
2023-05-19T09:04:07.162Z,12604.00
2023-05-19T09:05:06.975Z,11508.00
2023-05-19T09:06:06.929Z,10923.00
2023-05-19T09:07:07.257Z,11776.00
2023-05-19T09:08:06.864Z,13921.00
2023-05-19T09:09:06.874Z,13884.00
2023-05-19T09:10:06.869Z,13522.00
2023-05-19T09:11:07.324Z,11921.00
2023-05-19T09:12:07.260Z,11562.00
2023-05-19T09:13:06.841Z,13025.00
2023-05-19T09:14:06.805Z,16621.00
2023-05-19T09:15:06.806Z,13240.00
2023-05-19T09:16:07.358Z,12483.00
2023-05-19T09:17:06.819Z,10744.00
2023-05-19T09:18:06.848Z,12375.00
2023-05-19T09:19:06.925Z,11130.00
2023-05-19T09:20:06.763Z,16638.00
2023-05-19T09:21:06.770Z,6706.00
2023-05-19T09:22:06.762Z,15264.00
2023-05-19T09:23:06.731Z,14634.00
2023-05-19T09:24:06.812Z,11372.00
2023-05-19T09:25:06.787Z,16257.00
2023-05-19T09:26:07.047Z,13359.00
2023-05-19T09:27:06.678Z,11020.00
2023-05-19T09:28:06.675Z,10499.00
2023-05-19T09:29:06.668Z,14774.00
2023-05-19T09:30:07.240Z,7555.00
2023-05-19T09:31:06.716Z,4988.00
2023-05-19T09:32:06.685Z,4718.00
2023-05-19T09:33:06.687Z,4494.00
2023-05-19T09:34:06.660Z,4896.00
2023-05-19T09:35:06.899Z,2012.00
2023-05-19T09:36:06.670Z,7900.00
2023-05-19T09:37:06.701Z,1987.00
2023-05-19T09:38:06.587Z,4480.00
2023-05-19T09:39:06.573Z,9044.00
2023-05-19T09:40:06.617Z,3971.00
2023-05-19T09:41:06.670Z,4599.00
2023-05-19T09:42:06.573Z,5283.00
2023-05-19T09:43:06.784Z,5279.00
2023-05-19T09:44:06.856Z,5447.00
2023-05-19T09:45:06.825Z,2702.00
2023-05-19T09:46:06.722Z,5074.00
2023-05-19T09:47:06.568Z,12546.00
2023-05-19T09:48:06.525Z,2808.00
2023-05-19T09:49:06.832Z,6922.00
2023-05-19T09:50:06.457Z,6942.00
2023-05-19T09:51:06.569Z,3817.00
2023-05-19T09:52:06.500Z,7374.00
2023-05-19T09:53:06.420Z,7661.00
2023-05-19T09:54:06.710Z,6882.00
2023-05-19T09:55:06.476Z,7626.00
2023-05-19T09:56:06.400Z,6323.00
2023-05-19T09:57:08.159Z,8000.00
2023-05-19T09:58:06.709Z,6507.00
2023-05-19T09:59:06.716Z,6483.00
2023-05-19T10:00:06.334Z,6076.00
2023-05-19T10:01:06.416Z,3779.00
2023-05-19T10:02:06.346Z,5801.00
2023-05-19T10:03:06.341Z,3475.00
2023-05-19T10:04:06.323Z,5960.00
2023-05-19T10:05:06.374Z,6843.00
2023-05-19T10:06:06.301Z,6831.00
2023-05-19T10:07:06.256Z,6535.00
2023-05-19T10:08:06.309Z,6412.00
2023-05-19T10:09:06.238Z,13257.00
2023-05-19T10:10:06.253Z,5224.00
2023-05-19T10:11:06.232Z,5066.00
2023-05-19T10:12:06.541Z,4635.00
2023-05-19T10:13:06.543Z,4549.00
2023-05-19T10:14:06.224Z,4319.00
2023-05-19T10:15:06.270Z,4071.00
2023-05-19T10:16:06.196Z,2477.00
2023-05-19T10:17:06.245Z,5244.00
2023-05-19T10:18:06.218Z,7239.00
2023-05-19T10:19:06.260Z,3512.00
2023-05-19T10:20:06.164Z,4511.00
2023-05-19T10:21:06.194Z,5758.00
2023-05-19T10:22:06.100Z,5001.00
2023-05-19T10:23:06.095Z,9232.00
2023-05-19T10:24:06.080Z,2537.00
2023-05-19T10:25:06.072Z,8141.00
2023-05-19T10:26:06.202Z,2617.00
2023-05-19T10:27:06.088Z,5242.00
2023-05-19T10:28:06.047Z,2684.00
2023-05-19T10:29:06.083Z,3386.00
2023-05-19T10:30:06.018Z,4275.00
2023-05-19T10:31:06.352Z,3019.00
2023-05-19T10:32:06.044Z,4263.00
2023-05-19T10:33:06.075Z,4499.00
2023-05-19T10:34:06.019Z,6239.00
2023-05-19T10:35:05.976Z,6394.00
2023-05-19T10:36:06.012Z,2458.00
2023-05-19T10:37:05.967Z,3911.00
2023-05-19T10:38:05.997Z,4245.00
2023-05-19T10:39:05.975Z,4102.00
2023-05-19T10:40:06.000Z,3891.00
2023-05-19T10:41:05.954Z,9000.00
2023-05-19T10:42:05.985Z,1505.00
2023-05-19T10:43:05.963Z,2356.00
2023-05-19T10:44:05.896Z,3472.00
2023-05-19T10:45:05.986Z,3553.00
2023-05-19T10:46:05.855Z,3153.00
2023-05-19T10:47:05.899Z,3198.00
2023-05-19T10:48:06.168Z,3579.00
2023-05-19T10:49:05.855Z,4062.00
2023-05-19T10:50:05.866Z,4060.00
2023-05-19T10:51:06.244Z,3770.00
2023-05-19T10:52:05.846Z,5878.00
2023-05-19T10:53:05.820Z,2796.00
2023-05-19T10:54:06.093Z,3392.00
2023-05-19T10:55:06.180Z,9557.00
2023-05-19T10:56:05.768Z,3137.00
2023-05-19T10:57:05.748Z,1928.00
2023-05-19T10:58:05.766Z,9804.00
2023-05-19T10:59:06.132Z,1976.00
2023-05-19T11:00:05.789Z,6214.00
2023-05-19T11:01:05.766Z,1902.00
2023-05-19T11:02:05.795Z,2608.00
2023-05-19T11:03:05.807Z,3111.00
2023-05-19T11:04:05.793Z,3184.00
2023-05-19T11:05:05.710Z,2984.00
2023-05-19T11:06:05.737Z,2764.00
2023-05-19T11:07:05.831Z,2730.00
2023-05-19T11:08:06.018Z,2730.00
2023-05-19T11:09:05.697Z,2790.00
2023-05-19T11:10:05.630Z,2854.00
2023-05-19T11:11:05.615Z,2908.00
2023-05-19T11:12:05.641Z,2918.00
2023-05-19T11:13:06.462Z,2866.00
2023-05-19T11:14:05.599Z,2819.00
2023-05-19T11:15:05.833Z,2777.00
2023-05-19T11:16:05.671Z,2713.00
2023-05-19T11:17:05.719Z,2659.00
2023-05-19T11:18:06.138Z,2603.00
2023-05-19T11:19:05.640Z,2533.00
2023-05-19T11:20:05.836Z,2453.00
2023-05-19T11:21:05.783Z,2493.00
2023-05-19T11:22:05.581Z,2509.00
2023-05-19T11:23:05.627Z,2527.00
2023-05-19T11:24:05.538Z,2535.00
2023-05-19T11:25:05.555Z,2526.00
2023-05-19T11:26:05.494Z,2495.00
2023-05-19T11:27:05.478Z,2458.00
2023-05-19T11:28:05.525Z,2445.00
2023-05-19T11:29:05.455Z,2441.00
2023-05-19T11:30:05.481Z,2426.00
2023-05-19T11:31:05.527Z,2416.00
2023-05-19T11:32:05.758Z,2407.00
2023-05-19T11:33:05.597Z,2417.00
2023-05-19T11:34:05.469Z,2440.00
2023-05-19T11:35:05.670Z,2445.00
2023-05-19T11:36:05.797Z,2415.00
2023-05-19T11:37:05.675Z,2406.00
2023-05-19T11:38:05.327Z,2402.00
2023-05-19T11:39:05.341Z,2392.00
2023-05-19T11:40:05.321Z,2375.00
2023-05-19T11:41:05.656Z,2347.00
2023-05-19T11:42:05.332Z,2330.00
2023-05-19T11:43:05.335Z,2297.00
2023-05-19T11:44:05.385Z,2259.00
2023-05-19T11:45:05.270Z,2251.00
2023-05-19T11:46:05.707Z,2279.00
2023-05-19T11:47:05.242Z,2312.00
2023-05-19T11:48:05.308Z,2344.00
2023-05-19T11:49:05.277Z,2370.00
2023-05-19T11:50:05.230Z,2376.00
2023-05-19T11:51:05.549Z,2392.00
2023-05-19T11:52:05.235Z,2399.00
2023-05-19T11:53:05.374Z,2389.00
2023-05-19T11:54:05.217Z,2406.00
2023-05-19T11:55:05.693Z,2439.00
2023-05-19T11:56:05.159Z,2527.00
2023-05-19T11:57:05.167Z,2649.00
2023-05-19T11:58:05.990Z,2748.00
2023-05-19T11:59:05.114Z,2798.00
2023-05-19T12:00:05.164Z,2797.00
2023-05-19T12:01:05.113Z,2785.00
2023-05-19T12:02:05.096Z,2743.00
2023-05-19T12:03:05.458Z,2667.00
2023-05-19T12:04:05.215Z,2570.00
2023-05-19T12:05:05.541Z,2564.00
2023-05-19T12:06:05.058Z,2592.00
2023-05-19T12:07:05.044Z,2575.00
2023-05-19T12:08:05.122Z,2528.00
2023-05-19T12:09:05.395Z,2424.00
2023-05-19T12:10:05.018Z,2272.00
2023-05-19T12:11:05.013Z,2311.00
2023-05-19T12:12:04.989Z,2513.00
2023-05-19T12:13:04.991Z,2586.00
2023-05-19T12:14:05.673Z,2655.00
2023-05-19T12:15:04.961Z,2770.00
2023-05-19T12:16:05.066Z,2863.00
2023-05-19T12:17:04.992Z,3264.00
2023-05-19T12:18:05.010Z,2791.00
2023-05-19T12:19:04.978Z,2794.00
2023-05-19T12:20:04.901Z,2798.00
2023-05-19T12:21:04.913Z,2851.00
2023-05-19T12:22:05.021Z,2902.00